Time;durP1;ratioP1;P1;durP2;ratioP2;P2;SDS_P1;SDS_P2;PMS_P1;PMS_P2;Temp;Humidity;BMP_temperature;BMP_pressure;BME280_temperature;BME280_humidity;BME280_pressure;Samples;Min_cycle;Max_cycle;Signal;HPM_P1;HPM_P2
2021/05/19 00:01:40;;;;;;;0.20;0.20;;;;;;;10.52;76.83;98541.09;5094989;28;20472;-86
2021/05/19 00:04:07;;;;;;;0.20;0.20;;;;;;;10.37;76.66;98523.41;5094821;28;20024;-86
2021/05/19 00:06:34;;;;;;;0.30;0.30;;;;;;;10.27;76.63;98511.44;5094775;28;20085;-86
2021/05/19 00:08:59;;;;;;;0.20;0.20;;;;;;;10.55;75.20;98552.03;5094579;28;20035;-87
2021/05/19 00:11:25;;;;;;;0.55;0.55;;;;;;;10.63;75.18;98566.41;5094676;28;20028;-86
2021/05/19 00:13:51;;;;;;;0.30;0.30;;;;;;;10.56;75.31;98545.28;5094875;28;20024;-84
2021/05/19 00:16:17;;;;;;;0.20;0.20;;;;;;;10.68;73.66;98549.28;5094304;28;20024;-82
2021/05/19 00:18:42;;;;;;;0.20;0.20;;;;;;;10.79;72.97;98560.03;5094934;28;20024;-82
2021/05/19 00:21:09;;;;;;;0.20;0.20;;;;;;;10.69;72.70;98533.47;5094569;28;20036;-85
2021/05/19 00:23:35;;;;;;;0.20;0.20;;;;;;;10.85;73.67;98561.78;5094299;28;20034;-83
2021/05/19 00:26:01;;;;;;;0.20;0.20;;;;;;;10.82;73.40;98570.97;5094349;28;20118;-84
2021/05/19 00:28:26;;;;;;;0.20;0.20;;;;;;;10.79;72.87;98563.56;5094467;28;20043;-87
2021/05/19 00:30:57;;;;;;;2.92;0.43;;;;;;;10.91;72.60;98564.81;5094221;28;20057;-86
2021/05/19 00:33:24;;;;;;;0.20;0.20;;;;;;;10.91;72.69;98560.03;5094613;28;20051;-86
2021/05/19 00:35:50;;;;;;;0.20;0.20;;;;;;;10.80;73.63;98551.28;5094245;28;20044;-86
2021/05/19 00:38:16;;;;;;;0.30;0.30;;;;;;;10.73;73.40;98559.78;5094196;28;20028;-85
2021/05/19 00:40:42;;;;;;;0.22;0.22;;;;;;;10.63;73.88;98536.03;5094590;28;20032;-82
2021/05/19 00:43:08;;;;;;;0.20;0.20;;;;;;;10.63;74.64;98535.25;5093969;28;20028;-85
2021/05/19 00:46:03;;;;;;;0.20;0.20;;;;;;;10.61;75.29;98564.09;5094490;28;20028;-86
2021/05/19 00:48:28;;;;;;;0.20;0.20;;;;;;;10.58;74.83;98556.69;5094510;28;20028;-84
2021/05/19 00:50:54;;;;;;;0.10;0.10;;;;;;;10.54;75.50;98571.81;5094339;28;20043;-87
2021/05/19 00:53:19;;;;;;;2.75;1.40;;;;;;;10.49;75.16;98581.41;5093774;28;20036;-85
2021/05/19 00:55:45;;;;;;;0.30;0.30;;;;;;;10.28;75.32;98550.88;5093815;28;20028;-86
2021/05/19 00:58:29;;;;;;;0.32;0.32;;;;;;;10.29;75.27;98544.94;5093710;28;20047;-86
2021/05/19 01:00:55;;;;;;;0.60;0.60;;;;;;;10.51;75.31;98576.22;5094265;28;20028;-86
2021/05/19 01:03:21;;;;;;;0.20;0.20;;;;;;;10.50;75.65;98573.91;5094405;28;20463;-86
2021/05/19 01:05:53;;;;;;;0.30;0.30;;;;;;;10.52;75.93;98563.19;5093606;28;20601;-86
2021/05/19 01:11:08;;;;;;;0.30;0.30;;;;;;;10.25;76.18;98543.50;5095180;28;20093;-86
2021/05/19 01:13:40;;;;;;;0.32;0.32;;;;;;;10.09;76.13;98549.78;5092600;28;20118;-85
2021/05/19 01:16:06;;;;;;;0.20;0.20;;;;;;;9.99;76.89;98545.34;5094021;28;20024;-86
2021/05/19 01:18:32;;;;;;;0.60;0.60;;;;;;;9.80;76.50;98513.94;5093495;28;20027;-86
2021/05/19 01:20:58;;;;;;;0.20;0.20;;;;;;;10.01;77.26;98548.44;5093082;28;20127;-85
2021/05/19 01:23:29;;;;;;;0.40;0.40;;;;;;;9.93;77.04;98550.63;5093748;28;20067;-84
2021/05/19 01:25:55;;;;;;;0.30;0.30;;;;;;;10.23;76.76;98592.84;5093557;28;20024;-85
2021/05/19 01:28:21;;;;;;;0.30;0.30;;;;;;;10.23;76.38;98579.03;5093103;28;20073;-86
2021/05/19 01:30:46;;;;;;;0.52;0.52;;;;;;;10.24;76.53;98586.88;5093108;28;20028;-85
2021/05/19 01:33:12;;;;;;;0.22;0.22;;;;;;;10.26;77.46;98591.94;5092923;28;20024;-87
2021/05/19 01:35:38;;;;;;;0.30;0.30;;;;;;;10.00;77.34;98561.50;5092712;28;20043;-87
2021/05/19 01:38:06;;;;;;;0.25;0.25;;;;;;;10.00;77.81;98575.28;5093053;28;20016;-86
2021/05/19 01:40:32;;;;;;;0.20;0.20;;;;;;;10.05;78.06;98583.03;5093016;28;20032;-87
2021/05/19 01:42:58;;;;;;;1.65;0.57;;;;;;;9.79;77.87;98562.03;5093154;28;20488;-87
2021/05/19 01:45:25;;;;;;;0.45;0.45;;;;;;;9.75;78.49;98561.38;5092898;28;20027;-85
2021/05/19 01:47:52;;;;;;;1.30;0.82;;;;;;;9.78;78.43;98569.53;5092656;28;20055;-87
2021/05/19 01:50:24;;;;;;;0.17;0.17;;;;;;;9.85;78.71;98593.41;5092915;28;20036;-89
2021/05/19 01:52:56;;;;;;;0.20;0.20;;;;;;;9.75;79.28;98581.47;5093301;28;20454;-86
2021/05/19 01:55:23;;;;;;;0.20;0.20;;;;;;;9.74;79.29;98584.66;5092952;28;20046;-86
2021/05/19 01:57:49;;;;;;;0.20;0.20;;;;;;;9.77;79.35;98594.81;5092938;28;20471;-86
2021/05/19 02:00:16;;;;;;;0.20;0.20;;;;;;;9.72;79.97;98601.63;5092502;28;20084;-87
2021/05/19 02:02:42;;;;;;;0.17;0.17;;;;;;;9.57;80.59;98556.31;5092552;28;20488;-86
2021/05/19 02:05:13;;;;;;;0.30;0.30;;;;;;;9.43;80.31;98540.13;5092819;28;20042;-83
2021/05/19 02:07:39;;;;;;;0.38;0.38;;;;;;;9.58;79.76;98579.16;5092929;28;20031;-88
2021/05/19 02:10:09;;;;;;;0.52;0.52;;;;;;;9.64;79.46;98563.63;5092465;28;20028;-84
2021/05/19 02:12:35;;;;;;;0.20;0.20;;;;;;;9.69;78.57;98579.66;5092482;28;20024;-89
2021/05/19 02:15:01;;;;;;;0.20;0.20;;;;;;;9.68;78.17;98558.78;5092469;28;20020;-88
2021/05/19 02:17:28;;;;;;;0.15;0.15;;;;;;;9.70;77.46;98543.38;5092417;28;20031;-88
2021/05/19 02:19:54;;;;;;;0.20;0.20;;;;;;;10.05;77.02;98583.03;5092247;28;20036;-88
2021/05/19 02:22:20;;;;;;;0.95;0.95;;;;;;;9.98;76.29;98579.69;5092256;28;20092;-84
2021/05/19 02:24:45;;;;;;;0.20;0.20;;;;;;;10.05;75.93;98573.97;5092767;28;20020;-88
2021/05/19 02:27:11;;;;;;;0.28;0.28;;;;;;;10.04;75.58;98569.66;5092609;28;20485;-86
2021/05/19 02:29:36;;;;;;;0.30;0.30;;;;;;;10.05;75.96;98582.25;5092622;28;20081;-88
2021/05/19 02:32:02;;;;;;;0.20;0.20;;;;;;;9.99;76.29;98593.06;5092213;28;20032;-87
2021/05/19 02:34:28;;;;;;;2.20;0.50;;;;;;;9.82;76.73;98575.72;5092079;28;20134;-86
2021/05/19 02:36:54;;;;;;;0.30;0.30;;;;;;;10.08;76.25;98592.41;5092674;28;20025;-88
2021/05/19 02:39:19;;;;;;;0.20;0.20;;;;;;;9.95;76.26;98575.78;5092192;28;20516;-87
2021/05/19 02:41:45;;;;;;;0.30;0.30;;;;;;;9.72;77.11;98543.69;5092774;28;20024;-87
2021/05/19 02:44:10;;;;;;;0.52;0.52;;;;;;;9.59;77.85;98534.56;5092181;28;20028;-88
2021/05/19 02:46:36;;;;;;;0.20;0.20;;;;;;;9.52;78.29;98545.81;5092236;28;20024;-86
2021/05/19 02:49:03;;;;;;;0.55;0.50;;;;;;;9.76;79.08;98594.03;5092178;28;20054;-86
2021/05/19 02:51:37;;;;;;;0.40;0.40;;;;;;;9.33;79.91;98554.97;5092017;28;20119;-87
2021/05/19 02:54:08;;;;;;;0.20;0.20;;;;;;;9.63;79.56;98598.72;5092370;28;20115;-86
2021/05/19 02:56:33;;;;;;;0.28;0.28;;;;;;;9.51;79.50;98591.13;5092688;28;20471;-86
2021/05/19 02:58:59;;;;;;;0.28;0.28;;;;;;;9.50;79.35;98597.84;5092131;28;20039;-88
2021/05/19 03:01:24;;;;;;;0.30;0.30;;;;;;;9.52;79.66;98591.91;5091801;28;20028;-87
2021/05/19 03:03:50;;;;;;;0.30;0.30;;;;;;;9.47;79.73;98590.44;5092766;28;20028;-89
2021/05/19 03:06:16;;;;;;;0.20;0.20;;;;;;;9.11;79.90;98531.84;5091994;28;20499;-87
2021/05/19 03:08:41;;;;;;;0.22;0.22;;;;;;;9.45;80.13;98583.81;5092364;28;20364;-86
2021/05/19 03:11:07;;;;;;;0.20;0.20;;;;;;;9.17;79.73;98543.91;5091822;28;20025;-86
2021/05/19 03:13:33;;;;;;;0.20;0.20;;;;;;;9.33;79.38;98546.69;5092252;28;20035;-87
2021/05/19 03:15:58;;;;;;;0.30;0.30;;;;;;;9.64;78.99;98586.47;5091893;28;20024;-87
2021/05/19 03:18:24;;;;;;;0.20;0.20;;;;;;;9.70;78.83;98593.03;5095852;28;20029;-87
2021/05/19 03:20:49;;;;;;;0.20;0.20;;;;;;;9.57;78.02;98556.31;5091815;28;20173;-87
2021/05/19 03:23:15;;;;;;;0.20;0.20;;;;;;;9.85;77.89;98589.88;5091809;28;20089;-87
2021/05/19 03:25:41;;;;;;;0.20;0.20;;;;;;;9.89;77.79;98596.06;5092222;28;20024;-86
2021/05/19 03:28:07;;;;;;;0.20;0.20;;;;;;;9.95;77.00;98588.81;5091531;28;20054;-87
2021/05/19 03:30:32;;;;;;;0.63;0.63;;;;;;;9.95;77.19;98586.06;5092563;28;20028;-87
2021/05/19 03:32:58;;;;;;;0.20;0.20;;;;;;;10.33;76.22;98586.22;5092220;28;20475;-88
2021/05/19 03:35:24;;;;;;;0.20;0.20;;;;;;;10.47;74.53;98547.94;5091435;28;20048;-86
2021/05/19 03:37:49;;;;;;;0.20;0.20;;;;;;;11.34;72.39;98584.34;5095083;28;20028;-87
2021/05/19 03:40:15;;;;;;;0.10;0.10;;;;;;;11.92;69.45;98586.81;5095335;28;20067;-87
2021/05/19 03:42:42;;;;;;;0.20;0.20;;;;;;;12.09;67.68;98554.94;5095470;28;20032;-88
2021/05/19 03:45:12;;;;;;;0.13;0.13;;;;;;;12.52;67.00;98576.34;5095818;28;20028;-86
2021/05/19 03:47:38;;;;;;;0.20;0.20;;;;;;;12.78;65.14;98590.78;5096147;28;20139;-87
2021/05/19 03:50:05;;;;;;;0.10;0.10;;;;;;;13.40;63.37;98585.22;5096566;28;20483;-87
2021/05/19 03:52:32;;;;;;;0.55;0.55;;;;;;;13.61;60.87;98525.28;5095615;28;20047;-86
2021/05/19 03:54:58;;;;;;;0.43;0.43;;;;;;;14.54;59.28;98553.34;5095747;28;20508;-87
2021/05/19 03:57:23;;;;;;;0.10;0.10;;;;;;;15.39;56.20;98591.84;5095741;28;20024;-88
2021/05/19 03:59:49;;;;;;;0.30;0.30;;;;;;;15.78;54.41;98533.47;5095783;28;20040;-87
2021/05/19 04:02:14;;;;;;;0.13;0.13;;;;;;;16.56;52.01;98527.34;5095530;28;20024;-87
2021/05/19 04:04:40;;;;;;;0.43;0.43;;;;;;;17.04;50.74;98527.91;5095247;28;20509;-87
2021/05/19 04:07:06;;;;;;;2.92;1.23;;;;;;;18.80;47.13;98579.41;5095454;28;20028;-86
2021/05/19 04:09:32;;;;;;;0.13;0.13;;;;;;;19.01;45.58;98507.28;5095395;28;20098;-87
2021/05/19 04:11:58;;;;;;;0.20;0.20;;;;;;;19.86;43.72;98541.66;5095451;28;20032;-86
2021/05/19 04:14:23;;;;;;;0.08;0.08;;;;;;;20.87;40.40;98520.19;5095187;28;20034;-87
2021/05/19 04:16:49;;;;;;;0.08;0.08;;;;;;;21.55;39.21;98541.34;5095365;28;20036;-86
2021/05/19 04:19:14;;;;;;;0.00;0.00;;;;;;;21.87;38.84;98547.38;5096061;28;20426;-87
2021/05/19 04:21:40;;;;;;;0.10;0.10;;;;;;;21.95;38.08;98548.38;5095280;28;20107;-83
2021/05/19 04:24:06;;;;;;;0.10;0.10;;;;;;;21.75;38.88;98594.47;5094779;28;20055;-86
2021/05/19 04:26:32;;;;;;;0.10;0.10;;;;;;;21.99;38.45;98588.28;5094880;28;20028;-87
2021/05/19 04:28:57;;;;;;;0.38;0.30;;;;;;;22.36;37.61;98573.78;5095737;28;20020;-87
2021/05/19 04:31:23;;;;;;;0.10;0.10;;;;;;;23.60;35.48;98591.31;5094702;28;20035;-86
2021/05/19 04:33:48;;;;;;;0.30;0.30;;;;;;;23.25;35.52;98530.88;5094462;28;20032;-86
2021/05/19 04:36:15;;;;;;;0.10;0.10;;;;;;;22.39;37.32;98581.19;5094365;28;20048;-87
2021/05/19 04:38:41;;;;;;;0.10;0.10;;;;;;;21.00;40.54;98559.78;5094456;28;20020;-86
2021/05/19 04:41:06;;;;;;;0.10;0.10;;;;;;;21.48;39.79;98586.84;5094459;28;20471;-86
2021/05/19 04:43:32;;;;;;;0.10;0.10;;;;;;;21.50;38.95;98547.75;5094050;28;20069;-85
2021/05/19 04:45:59;;;;;;;0.05;0.05;;;;;;;21.83;38.53;98570.13;5094344;28;20091;-86
2021/05/19 04:48:26;;;;;;;0.30;0.30;;;;;;;21.70;38.03;98504.50;5093104;28;20060;-86
2021/05/19 04:50:52;;;;;;;0.10;0.10;;;;;;;22.02;37.67;98502.06;5094174;28;20496;-84
2021/05/19 04:53:18;;;;;;;0.10;0.10;;;;;;;23.09;36.52;98557.91;5094172;28;20043;-83
2021/05/19 04:55:44;;;;;;;0.05;0.05;;;;;;;23.14;36.38;98570.47;5094004;28;20084;-84
2021/05/19 04:58:09;;;;;;;0.17;0.17;;;;;;;24.13;34.59;98545.28;5094204;28;20035;-86
2021/05/19 05:00:37;;;;;;;0.43;0.43;;;;;;;23.97;34.13;98511.66;5093697;28;20419;-87
2021/05/19 05:03:04;;;;;;;0.00;0.00;;;;;;;24.08;33.79;98520.72;5093673;28;20415;-85
2021/05/19 05:05:30;;;;;;;1.02;0.20;;;;;;;24.18;34.28;98567.06;5093530;28;20024;-84
2021/05/19 05:07:56;;;;;;;0.10;0.10;;;;;;;24.32;34.07;98550.97;5093465;28;20511;-83
2021/05/19 05:10:21;;;;;;;0.00;0.00;;;;;;;24.15;35.17;98558.88;5093492;28;20031;-86
2021/05/19 05:12:49;;;;;;;0.00;0.00;;;;;;;24.25;34.94;98555.19;5093601;28;20106;-85
2021/05/19 05:15:15;;;;;;;0.17;0.17;;;;;;;25.33;33.43;98569.97;5093436;28;20031;-87
2021/05/19 05:17:41;;;;;;;0.20;0.20;;;;;;;25.86;31.88;98531.94;5093609;28;20040;-87
2021/05/19 05:20:09;;;;;;;0.00;0.00;;;;;;;27.40;30.32;98573.56;5094713;28;20028;-84
2021/05/19 05:22:36;;;;;;;0.30;0.30;;;;;;;27.49;29.94;98519.13;5094286;28;20036;-87
2021/05/19 05:25:03;;;;;;;0.00;0.00;;;;;;;27.20;30.21;98576.38;5093572;28;20122;-85
2021/05/19 05:27:29;;;;;;;0.15;0.10;;;;;;;28.78;27.44;98578.72;5093680;28;20035;-84
2021/05/19 05:29:54;;;;;;;0.00;0.00;;;;;;;28.31;28.21;98579.84;5093757;28;20058;-86
2021/05/19 05:32:20;;;;;;;0.10;0.10;;;;;;;27.20;28.43;98508.31;5096770;28;20039;-83
2021/05/19 05:34:46;;;;;;;0.00;0.00;;;;;;;27.85;28.93;98575.22;5092732;28;20093;-84
2021/05/19 05:37:12;;;;;;;0.00;0.00;;;;;;;27.93;28.22;98567.50;5092990;28;20028;-83
2021/05/19 05:39:37;;;;;;;0.00;0.00;;;;;;;27.83;29.18;98563.66;5092921;28;20035;-85
2021/05/19 05:42:03;;;;;;;0.20;0.20;;;;;;;29.01;27.54;98562.44;5093161;28;20032;-85
2021/05/19 05:44:29;;;;;;;0.25;0.25;;;;;;;29.99;26.40;98560.16;5092728;28;20531;-84
2021/05/19 05:46:55;;;;;;;0.08;0.08;;;;;;;30.28;24.90;98550.75;5092550;28;20028;-85
2021/05/19 05:49:21;;;;;;;0.00;0.00;;;;;;;29.65;26.74;98557.72;5092516;28;20028;-87
2021/05/19 05:51:46;;;;;;;0.00;0.00;;;;;;;30.14;25.21;98523.06;5092767;28;20020;-87
2021/05/19 05:54:12;;;;;;;0.00;0.00;;;;;;;30.82;24.99;98567.59;5093222;28;20032;-86
2021/05/19 05:56:40;;;;;;;0.10;0.10;;;;;;;30.52;25.01;98498.00;5092454;28;20024;-85
2021/05/19 05:59:07;;;;;;;0.43;0.43;;;;;;;29.83;25.52;98562.25;5091519;28;20119;-83
2021/05/19 06:01:33;;;;;;;0.20;0.20;;;;;;;31.33;24.51;98547.88;5092473;28;20501;-84
2021/05/19 06:03:58;;;;;;;0.00;0.00;;;;;;;31.08;24.31;98513.63;5092326;28;20169;-83
2021/05/19 06:06:24;;;;;;;0.00;0.00;;;;;;;32.15;23.05;98541.94;5092643;28;20028;-81
2021/05/19 06:08:49;;;;;;;0.20;0.20;;;;;;;32.39;22.59;98543.16;5092251;28;20081;-86
2021/05/19 06:11:15;;;;;;;0.05;0.05;;;;;;;32.19;22.75;98525.09;5092414;28;20039;-87
2021/05/19 06:13:40;;;;;;;0.03;0.03;;;;;;;32.73;22.12;98511.59;5092226;28;20059;-82
2021/05/19 06:16:06;;;;;;;0.00;0.00;;;;;;;33.61;20.87;98539.22;5092415;28;20032;-85
2021/05/19 06:18:31;;;;;;;0.10;0.10;;;;;;;34.16;20.03;98524.06;5092310;28;20032;-84
2021/05/19 06:20:57;;;;;;;0.00;0.00;;;;;;;34.66;19.53;98515.53;5092241;28;20119;-86
2021/05/19 06:23:23;;;;;;;0.20;0.20;;;;;;;35.79;18.87;98488.25;5092311;28;20127;-82
2021/05/19 06:25:48;;;;;;;0.03;0.03;;;;;;;36.07;17.65;98503.00;5092185;28;20058;-83
2021/05/19 06:28:14;;;;;;;0.00;0.00;;;;;;;36.37;16.77;98521.53;5091998;28;20020;-84
2021/05/19 06:30:39;;;;;;;0.25;0.25;;;;;;;35.36;17.84;98516.19;5092359;28;20032;-83
2021/05/19 06:33:05;;;;;;;0.00;0.00;;;;;;;35.35;18.39;98476.56;5092281;28;20032;-85
2021/05/19 06:35:30;;;;;;;0.10;0.10;;;;;;;36.55;17.90;98511.19;5091941;28;20649;-85
2021/05/19 06:38:02;;;;;;;0.00;0.00;;;;;;;37.24;17.21;98495.41;5092646;28;20078;-84
2021/05/19 06:40:27;;;;;;;0.10;0.10;;;;;;;36.07;16.53;98515.25;5092561;28;20040;-87
2021/05/19 06:42:53;;;;;;;0.00;0.00;;;;;;;35.72;17.32;98494.22;5092091;28;20024;-86
2021/05/19 06:45:18;;;;;;;11.50;0.30;;;;;;;36.65;17.29;98509.72;5092178;28;20230;-84
2021/05/19 06:47:44;;;;;;;0.00;0.00;;;;;;;36.96;15.83;98462.66;5091906;28;20020;-84
2021/05/19 06:50:10;;;;;;;0.10;0.10;;;;;;;38.36;15.50;98508.53;5091651;28;20116;-83
2021/05/19 06:52:35;;;;;;;0.00;0.00;;;;;;;36.43;16.53;98450.72;5091866;28;20024;-84
2021/05/19 06:55:02;;;;;;;0.90;0.30;;;;;;;38.38;16.21;98489.19;5091976;28;20106;-83
2021/05/19 06:57:28;;;;;;;0.47;0.47;;;;;;;36.38;15.56;98488.50;5092081;28;20115;-84
2021/05/19 06:59:53;;;;;;;0.00;0.00;;;;;;;34.30;17.80;98487.09;5091887;28;20083;-84
2021/05/19 07:02:19;;;;;;;0.15;0.10;;;;;;;35.56;18.15;98447.09;5091764;28;20036;-86
2021/05/19 07:04:44;;;;;;;0.38;0.38;;;;;;;34.30;17.80;98487.09;5092056;28;20032;-85
2021/05/19 07:07:10;;;;;;;54.85;2.13;;;;;;;34.88;17.36;98447.50;5091809;28;20124;-83
2021/05/19 07:09:36;;;;;;;0.00;0.00;;;;;;;35.77;16.81;98472.97;5091691;28;20028;-84
2021/05/19 07:12:02;;;;;;;0.08;0.08;;;;;;;34.70;17.51;98454.81;5094303;28;20031;-85
2021/05/19 07:14:28;;;;;;;0.15;0.15;;;;;;;36.34;16.98;98450.84;5095759;28;20051;-84
2021/05/19 07:16:54;;;;;;;0.10;0.10;;;;;;;37.09;15.92;98454.16;5095432;28;20118;-84
2021/05/19 07:19:24;;;;;;;0.00;0.00;;;;;;;38.25;15.29;98466.78;5095282;28;20046;-83
2021/05/19 07:21:51;;;;;;;0.17;0.10;;;;;;;37.38;15.19;98478.94;5095492;28;20056;-84
2021/05/19 07:24:17;;;;;;;;;;;;;;;37.72;15.21;98463.75;5095907;28;20484;-83
2021/05/19 07:26:45;;;;;;;0.00;0.00;;;;;;;38.08;14.53;98416.06;5095570;28;20012;-85
2021/05/19 07:29:12;;;;;;;0.00;0.00;;;;;;;38.24;14.26;98480.47;5095598;28;20524;-84
2021/05/19 07:31:38;;;;;;;;;;;;;;;38.41;14.12;98469.81;5095862;28;20475;-84
2021/05/19 07:34:04;;;;;;;0.00;0.00;;;;;;;38.20;15.98;98468.72;5095333;28;19908;-83
2021/05/19 07:36:30;;;;;;;0.08;0.03;;;;;;;36.70;16.49;98456.03;5095424;28;20039;-83
2021/05/19 07:38:56;;;;;;;11.68;0.75;;;;;;;37.33;14.87;98442.63;5095082;28;20026;-85
2021/05/19 07:41:23;;;;;;;0.40;0.10;;;;;;;37.94;14.90;98418.13;5095282;28;20028;-82
2021/05/19 07:43:49;;;;;;;0.00;0.00;;;;;;;36.47;15.53;98421.47;5095270;28;20050;-84
2021/05/19 07:46:15;;;;;;;0.08;0.08;;;;;;;35.12;16.57;98454.16;5095099;28;20032;-82
2021/05/19 07:48:40;;;;;;;0.10;0.10;;;;;;;34.75;17.15;98430.78;5095063;28;20024;-84
2021/05/19 07:51:06;;;;;;;0.00;0.00;;;;;;;34.02;18.10;98462.03;5094985;28;20024;-83
2021/05/19 07:53:31;;;;;;;0.05;0.05;;;;;;;34.67;17.57;98448.16;5094913;28;20020;-85
2021/05/19 07:58:51;;;;;;;0.00;0.00;;;;;;;36.85;15.77;98446.16;5096487;28;20028;-84
2021/05/19 08:01:44;;;;;;;0.05;0.05;;;;;;;35.89;16.38;98413.38;5095675;28;20047;-81
2021/05/19 08:04:11;;;;;;;0.30;0.22;;;;;;;34.88;18.04;98403.66;5094708;28;20036;-84
2021/05/19 08:06:37;;;;;;;0.00;0.00;;;;;;;32.17;20.97;98430.59;5094720;28;20484;-79
2021/05/19 08:09:04;;;;;;;0.20;0.20;;;;;;;32.12;21.35;98408.72;5094668;28;20055;-84
2021/05/19 08:11:30;;;;;;;2.08;0.98;;;;;;;32.57;20.64;98380.81;5095051;28;20024;-85
2021/05/19 08:13:56;;;;;;;0.00;0.00;;;;;;;33.09;21.22;98399.19;5094709;28;20089;-86
2021/05/19 08:16:22;;;;;;;0.00;0.00;;;;;;;32.37;21.11;98402.88;5094980;28;20498;-79
2021/05/19 08:18:47;;;;;;;0.65;0.55;;;;;;;28.87;23.08;98401.06;5095452;28;20049;-82
2021/05/19 08:21:13;;;;;;;0.10;0.10;;;;;;;28.01;23.78;98397.88;5094350;28;20036;-81
2021/05/19 08:23:39;;;;;;;0.10;0.10;;;;;;;27.90;25.52;98396.16;5093950;28;20031;-82
2021/05/19 08:26:05;;;;;;;0.00;0.00;;;;;;;27.86;26.05;98390.06;5094608;28;20038;-81
2021/05/19 08:28:35;;;;;;;0.08;0.08;;;;;;;28.15;26.23;98387.91;5094173;28;20028;-84
2021/05/19 08:31:01;;;;;;;0.20;0.20;;;;;;;28.68;25.17;98351.00;5094289;28;20084;-84
2021/05/19 08:33:27;;;;;;;0.05;0.05;;;;;;;28.68;23.75;98376.59;5094312;28;20035;-80
2021/05/19 08:35:52;;;;;;;0.00;0.00;;;;;;;28.24;24.67;98358.94;5094247;28;20052;-84
2021/05/19 08:38:18;;;;;;;0.10;0.10;;;;;;;29.17;23.23;98377.50;5094329;28;20502;-84
2021/05/19 08:40:43;;;;;;;0.00;0.00;;;;;;;29.23;23.41;98378.06;5094281;28;20407;-82
2021/05/19 08:43:12;;;;;;;0.10;0.10;;;;;;;28.01;25.71;98358.13;5094161;28;20476;-80
2021/05/19 08:45:41;;;;;;;0.20;0.20;;;;;;;27.55;23.41;98302.56;5094278;28;20028;-81
2021/05/19 08:48:10;;;;;;;0.10;0.10;;;;;;;25.99;26.99;98333.00;5094319;28;20454;-80
2021/05/19 08:50:37;;;;;;;0.10;0.10;;;;;;;26.61;24.68;98350.00;5095164;28;20032;-83
2021/05/19 08:53:08;;;;;;;1.80;1.10;;;;;;;26.90;28.91;98376.31;5094054;28;20056;-84
2021/05/19 08:55:36;;;;;;;0.00;0.00;;;;;;;25.82;26.47;98322.06;5094007;28;20115;-80
2021/05/19 08:58:02;;;;;;;;;;;;;;;26.74;27.59;98344.25;5094185;28;20492;-78
2021/05/19 09:00:28;;;;;;;0.10;0.10;;;;;;;26.46;27.17;98341.41;5093733;28;20015;-81
2021/05/19 09:03:07;;;;;;;0.10;0.10;;;;;;;25.62;28.07;98308.63;5093500;28;20024;-80
2021/05/19 09:05:34;;;;;;;1.00;0.47;;;;;;;25.34;27.82;98288.69;5093452;28;20020;-82
2021/05/19 09:08:04;;;;;;;0.10;0.10;;;;;;;25.62;27.52;98302.25;5093324;28;20130;-82
2021/05/19 09:10:30;;;;;;;18.05;0.30;;;;;;;26.05;27.82;98322.28;5093508;28;20032;-83
2021/05/19 09:12:55;;;;;;;2.58;0.90;;;;;;;26.28;26.71;98272.28;5093557;28;20097;-84
2021/05/19 09:15:22;;;;;;;0.13;0.13;;;;;;;26.13;26.63;98291.22;5093325;28;20030;-81
2021/05/19 09:17:55;;;;;;;0.35;0.32;;;;;;;25.64;28.43;98271.31;5093241;28;20479;-82
2021/05/19 09:20:21;;;;;;;0.03;0.03;;;;;;;25.38;28.48;98300.41;5093407;28;20036;-81
2021/05/19 09:22:47;;;;;;;0.15;0.15;;;;;;;25.42;29.33;98318.59;5093133;28;20028;-79
2021/05/19 09:25:22;;;;;;;0.43;0.20;;;;;;;25.08;27.89;98307.19;5093001;28;20148;-82
2021/05/19 09:27:50;;;;;;;3.47;1.40;;;;;;;25.55;28.03;98278.19;5093057;28;20132;-76
2021/05/19 09:30:34;;;;;;;0.10;0.10;;;;;;;25.63;28.16;98298.06;5092616;28;20020;-81
2021/05/19 09:33:21;;;;;;;0.10;0.03;;;;;;;25.85;27.36;98312.50;5093388;28;20107;-80
2021/05/19 09:36:10;;;;;;;0.03;0.03;;;;;;;24.98;27.99;98299.72;5092488;28;20571;-76
2021/05/19 09:38:36;;;;;;;0.43;0.20;;;;;;;26.08;28.78;98298.53;5093074;28;20080;-81
2021/05/19 09:41:18;;;;;;;1.77;0.80;;;;;;;26.48;26.14;98307.59;5093109;28;20032;-77
2021/05/19 09:43:45;;;;;;;0.10;0.10;;;;;;;25.66;25.60;98260.97;5092919;28;20020;-76
2021/05/19 09:46:20;;;;;;;0.10;0.10;;;;;;;25.43;27.30;98293.88;5092568;28;20028;-79
2021/05/19 09:48:46;;;;;;;0.10;0.10;;;;;;;25.35;25.94;98253.44;5092847;28;20035;-80
2021/05/19 09:51:27;;;;;;;0.40;0.40;;;;;;;25.83;26.85;98289.63;5092665;28;20032;-79
2021/05/19 09:53:53;;;;;;;0.10;0.10;;;;;;;25.12;26.49;98250.34;5092415;28;20020;-80
2021/05/19 09:56:19;;;;;;;0.03;0.03;;;;;;;25.08;26.52;98270.44;5092503;28;20051;-79
2021/05/19 09:58:46;;;;;;;0.10;0.10;;;;;;;24.62;26.40;98259.81;5092678;28;20047;-79
2021/05/19 10:01:12;;;;;;;0.00;0.00;;;;;;;24.85;27.70;98280.69;5092472;28;20114;-80
2021/05/19 10:03:38;;;;;;;0.38;0.38;;;;;;;24.71;28.25;98236.78;5092487;28;20050;-78
2021/05/19 10:06:12;;;;;;;0.10;0.10;;;;;;;25.08;29.26;98256.31;5092437;28;20028;-79
2021/05/19 10:08:37;;;;;;;0.45;0.30;;;;;;;25.19;27.73;98263.06;5093618;28;20023;-79
2021/05/19 10:11:05;;;;;;;0.50;0.50;;;;;;;25.03;28.27;98245.91;5092346;28;20032;-80
2021/05/19 10:13:31;;;;;;;0.10;0.10;;;;;;;25.13;27.21;98280.16;5092201;28;20032;-79
2021/05/19 10:16:00;;;;;;;0.05;0.05;;;;;;;25.16;27.62;98273.38;5092268;28;20047;-80
2021/05/19 10:18:29;;;;;;;0.00;0.00;;;;;;;25.30;27.93;98246.59;5092283;28;20127;-80
2021/05/19 10:20:57;;;;;;;0.17;0.17;;;;;;;24.92;26.27;98229.19;5092153;28;20036;-78
2021/05/19 10:23:37;;;;;;;0.20;0.20;;;;;;;25.29;28.12;98267.69;5092191;28;20040;-79
2021/05/19 10:26:11;;;;;;;0.10;0.10;;;;;;;25.10;27.60;98227.50;5092366;28;20028;-78
2021/05/19 10:28:43;;;;;;;0.20;0.20;;;;;;;25.63;29.06;98256.41;5092225;28;20028;-81
2021/05/19 10:31:31;;;;;;;0.43;0.32;;;;;;;25.95;26.20;98247.66;5092567;28;20024;-81
2021/05/19 10:33:58;;;;;;;0.10;0.10;;;;;;;26.24;26.75;98222.97;5091891;28;20032;-80
2021/05/19 10:36:23;;;;;;;0.10;0.10;;;;;;;26.17;28.97;98257.63;5092103;28;20024;-79
2021/05/19 10:39:10;;;;;;;0.10;0.10;;;;;;;25.37;27.28;98212.00;5091870;28;20043;-80
2021/05/19 10:41:36;;;;;;;0.10;0.10;;;;;;;25.07;29.97;98228.63;5092453;28;20032;-78
2021/05/19 10:44:09;;;;;;;0.20;0.20;;;;;;;24.69;30.10;98188.53;5091835;28;20061;-81
2021/05/19 10:47:04;;;;;;;0.20;0.20;;;;;;;25.62;30.25;98198.28;5093565;28;20024;-80
2021/05/19 10:49:58;;;;;;;2.30;0.43;;;;;;;25.59;28.61;98207.13;5096150;28;20059;-77
2021/05/19 10:52:39;;;;;;;38.38;0.75;;;;;;;25.72;29.08;98198.56;5096382;28;20028;-81
2021/05/19 10:58:06;;;;;;;0.10;0.10;;;;;;;25.87;30.67;98221.34;5097426;28;20043;-87
2021/05/19 11:00:32;;;;;;;;;;;;;;;25.47;30.18;98220.75;5096327;28;20027;-80
2021/05/19 11:03:00;;;;;;;0.00;0.00;;;;;;;25.43;30.45;98215.44;5096134;28;19912;-81
2021/05/19 11:05:33;;;;;;;0.28;0.15;;;;;;;25.33;31.35;98208.72;5096126;28;20028;-82
2021/05/19 11:08:04;;;;;;;0.43;0.25;;;;;;;25.61;31.50;98213.00;5096130;28;20097;-81
2021/05/19 11:10:30;;;;;;;0.15;0.15;;;;;;;25.34;30.64;98178.38;5095887;28;20419;-82
2021/05/19 11:12:56;;;;;;;0.10;0.10;;;;;;;25.74;30.24;98174.06;5095812;28;20024;-82
2021/05/19 11:18:31;;;;;;;0.00;0.00;;;;;;;25.33;31.11;98166.31;5097438;28;20044;-82
2021/05/19 11:20:59;;;;;;;0.00;0.00;;;;;;;25.21;30.54;98198.97;5097050;28;20038;-80
2021/05/19 11:23:24;;;;;;;;;;;;;;;25.76;31.73;98207.47;5096075;28;20111;-80
2021/05/19 11:25:50;;;;;;;0.10;0.10;;;;;;;26.06;30.11;98181.47;5095695;28;19943;-79
2021/05/19 11:28:25;;;;;;;0.00;0.00;;;;;;;26.14;29.59;98191.56;5095590;28;20039;-81
2021/05/19 11:31:07;;;;;;;0.08;0.08;;;;;;;26.10;29.72;98193.97;5095570;28;20086;-80
2021/05/19 11:33:52;;;;;;;0.45;0.45;;;;;;;25.80;29.69;98183.16;5095257;28;20063;-81
2021/05/19 11:36:43;;;;;;;0.45;0.20;;;;;;;26.04;28.86;98186.97;5095656;28;20503;-80
2021/05/19 11:39:37;;;;;;;0.10;0.10;;;;;;;26.13;30.27;98184.38;5095287;28;20062;-82
2021/05/19 11:42:13;;;;;;;0.25;0.25;;;;;;;25.93;30.29;98171.75;5095550;28;20032;-81
2021/05/19 11:44:42;;;;;;;0.20;0.10;;;;;;;25.71;29.73;98127.06;5095432;28;20028;-79
2021/05/19 11:47:08;;;;;;;0.10;0.10;;;;;;;25.82;29.63;98155.06;5095040;28;20032;-81
2021/05/19 11:49:34;;;;;;;0.20;0.20;;;;;;;25.77;31.44;98127.69;5095061;28;20024;-83
2021/05/19 11:52:00;;;;;;;0.10;0.10;;;;;;;25.30;30.38;98122.16;5094986;28;20123;-80